Time;durP1;ratioP1;P1;durP2;ratioP2;P2;SDS_P1;SDS_P2;PMS_P1;PMS_P2;Temp;Humidity;BMP_temperature;BMP_pressure;BME280_temperature;BME280_humidity;BME280_pressure;Samples;Min_cycle;Max_cycle;Signal;HPM_P1;HPM_P2
2022/09/08 00:00:23;;;;;;;;;;;;;;;22.67;55.21;153353.73;1662864;86;20193;-59
2022/09/08 00:02:50;;;;;;;;;;;;;;;22.68;55.16;153356.34;1664608;86;22170;-60
2022/09/08 00:05:16;;;;;;;;;;;;;;;22.73;54.81;153369.42;1635752;87;20233;-67
2022/09/08 00:07:45;;;;;;;;;;;;;;;22.73;54.75;153369.42;1696042;84;20235;-60
2022/09/08 00:10:11;;;;;;;;;;;;;;;22.61;54.70;153339.34;1659110;86;20799;-59
2022/09/08 00:12:41;;;;;;;;;;;;;;;22.44;55.21;153296.14;1658962;85;20177;-67
2022/09/08 00:15:08;;;;;;;;;;;;;;;22.32;55.67;153266.00;1659328;86;21270;-67
2022/09/08 00:17:35;;;;;;;;;;;;;;;22.23;55.91;153243.81;1659850;86;20452;-60
2022/09/08 00:20:02;;;;;;;;;;;;;;;22.28;55.99;153255.55;1659696;86;20225;-60
2022/09/08 00:22:29;;;;;;;;;;;;;;;22.32;56.15;153267.33;1659722;86;20150;-59
2022/09/08 00:24:56;;;;;;;;;;;;;;;22.39;56.17;153284.34;1660148;86;20209;-60
2022/09/08 00:27:23;;;;;;;;;;;;;;;22.49;55.77;153307.92;1659664;85;21169;-60
2022/09/08 00:29:50;;;;;;;;;;;;;;;22.56;55.14;153327.55;1659842;86;20208;-60
2022/09/08 00:32:18;;;;;;;;;;;;;;;22.60;55.09;153338.00;1659779;85;20189;-60
2022/09/08 00:34:44;;;;;;;;;;;;;;;22.58;55.05;153331.50;1659695;86;20498;-60
2022/09/08 00:37:11;;;;;;;;;;;;;;;22.54;55.02;153322.31;1659598;86;20218;-59
2022/09/08 00:39:38;;;;;;;;;;;;;;;22.33;55.44;153269.95;1659932;86;22112;-67
2022/09/08 00:42:06;;;;;;;;;;;;;;;22.16;55.99;153225.47;1659766;86;20185;-67
2022/09/08 00:44:48;;;;;;;;;;;;;;;22.13;56.41;153217.63;1659784;86;20193;-66
2022/09/08 00:47:23;;;;;;;;;;;;;;;22.13;56.58;153217.63;1658466;86;20201;-66
2022/09/08 00:49:53;;;;;;;;;;;;;;;22.16;56.69;153225.47;1657723;86;20201;-66
2022/09/08 00:52:19;;;;;;;;;;;;;;;22.23;56.53;153243.81;1659414;85;21898;-66
2022/09/08 00:54:46;;;;;;;;;;;;;;;22.38;56.23;153281.73;1660122;85;20522;-67
2022/09/08 00:57:13;;;;;;;;;;;;;;;22.50;55.97;153311.88;1659582;86;20177;-67
2022/09/08 00:59:40;;;;;;;;;;;;;;;22.46;55.80;153301.36;1668419;85;20608;-61
2022/09/08 01:02:25;;;;;;;;;;;;;;;22.40;55.97;153285.62;1682538;85;20188;-60
2022/09/08 01:04:58;;;;;;;;;;;;;;;22.27;56.32;153254.27;1683015;85;21802;-60
2022/09/08 01:13:37;;;;;;;;;;;;;;;22.25;56.44;153249.03;1662912;86;21026;-59
2022/09/08 01:16:05;;;;;;;;;;;;;;;22.32;56.61;153266.00;1662812;86;20167;-60
2022/09/08 01:18:34;;;;;;;;;;;;;;;22.46;56.61;153301.36;1662949;86;21100;-60
2022/09/08 01:21:07;;;;;;;;;;;;;;;22.64;56.06;153345.84;1663081;86;20206;-60
2022/09/08 01:23:56;;;;;;;;;;;;;;;22.65;55.91;153348.47;1663450;86;20442;-60
2022/09/08 01:26:46;;;;;;;;;;;;;;;22.70;55.79;153361.58;1662905;86;20173;-60
2022/09/08 01:29:13;;;;;;;;;;;;;;;22.61;55.75;153339.34;1663399;85;20137;-60
2022/09/08 01:31:41;;;;;;;;;;;;;;;22.41;56.26;153288.25;1663530;85;21915;-60
2022/09/08 01:34:08;;;;;;;;;;;;;;;22.25;56.82;153249.03;1663299;85;20437;-59
2022/09/08 01:36:34;;;;;;;;;;;;;;;22.22;57.13;153241.20;1663574;86;20157;-60
2022/09/08 01:39:01;;;;;;;;;;;;;;;22.32;57.05;153267.33;1663319;86;20467;-59
2022/09/08 01:41:28;;;;;;;;;;;;;;;22.40;57.12;153285.62;1663511;86;20486;-59
2022/09/08 01:43:54;;;;;;;;;;;;;;;22.49;57.13;153309.25;1663449;86;22017;-60
2022/09/08 01:46:20;;;;;;;;;;;;;;;22.56;56.92;153327.55;1663299;85;20184;-60
2022/09/08 01:48:47;;;;;;;;;;;;;;;22.53;56.86;153319.70;1663315;85;20169;-60
2022/09/08 01:51:13;;;;;;;;;;;;;;;22.53;57.00;153319.70;1663406;85;20136;-60
2022/09/08 01:53:40;;;;;;;;;;;;;;;22.43;56.99;153294.80;1663457;86;20196;-60
2022/09/08 01:56:07;;;;;;;;;;;;;;;22.24;57.48;153246.44;1663364;86;21234;-59
2022/09/08 01:58:36;;;;;;;;;;;;;;;22.08;58.34;153204.56;1663386;85;37498;-59
2022/09/08 02:01:03;;;;;;;;;;;;;;;22.06;58.72;153199.34;1663368;85;20217;-61
2022/09/08 02:03:30;;;;;;;;;;;;;;;22.04;58.84;153196.72;1663211;85;20447;-60
2022/09/08 02:06:01;;;;;;;;;;;;;;;22.09;59.17;153207.19;1662934;86;20300;-59
2022/09/08 02:08:30;;;;;;;;;;;;;;;22.20;59.19;153235.92;1680817;85;21212;-59
2022/09/08 02:10:57;;;;;;;;;;;;;;;22.37;59.19;153277.78;1693722;84;20178;-59
2022/09/08 02:13:23;;;;;;;;;;;;;;;22.48;59.10;153306.64;1694461;84;20240;-59
2022/09/08 02:15:50;;;;;;;;;;;;;;;22.53;59.34;153319.70;1694946;84;20211;-59
2022/09/08 02:18:16;;;;;;;;;;;;;;;22.66;59.52;153351.08;1694942;84;20243;-59
2022/09/08 02:20:43;;;;;;;;;;;;;;;22.72;59.58;153368.09;1695077;84;21504;-60
2022/09/08 02:23:10;;;;;;;;;;;;;;;22.69;59.78;153358.97;1695044;83;20215;-59
2022/09/08 02:25:36;;;;;;;;;;;;;;;22.60;60.43;153338.00;1695314;84;20480;-59
2022/09/08 02:28:03;;;;;;;;;;;;;;;22.51;60.90;153314.48;1695162;84;20203;-60
2022/09/08 02:30:29;;;;;;;;;;;;;;;22.41;60.98;153289.58;1695048;84;20502;-59
2022/09/08 02:32:56;;;;;;;;;;;;;;;22.39;61.34;153284.34;1695253;84;21125;-59
2022/09/08 02:35:22;;;;;;;;;;;;;;;22.39;61.28;153283.02;1695082;84;20206;-59
2022/09/08 02:37:49;;;;;;;;;;;;;;;22.35;61.34;153272.56;1695145;84;20262;-59
2022/09/08 02:40:16;;;;;;;;;;;;;;;22.28;61.50;153255.55;1694952;83;20203;-60
2022/09/08 02:42:44;;;;;;;;;;;;;;;22.21;62.05;153238.53;1695390;84;20200;-60
2022/09/08 02:45:11;;;;;;;;;;;;;;;22.24;62.69;153246.44;1695228;84;21145;-60
2022/09/08 02:47:37;;;;;;;;;;;;;;;22.35;62.76;153272.56;1695265;84;20163;-67
2022/09/08 02:50:05;;;;;;;;;;;;;;;22.47;62.45;153304.03;1695076;84;20230;-67
2022/09/08 02:52:32;;;;;;;;;;;;;;;22.42;62.50;153290.86;1695063;84;20806;-67
2022/09/08 02:54:59;;;;;;;;;;;;;;;22.27;62.85;153254.27;1695467;83;20214;-67
2022/09/08 02:57:25;;;;;;;;;;;;;;;22.07;63.71;153203.23;1695038;83;21218;-67
2022/09/08 02:59:52;;;;;;;;;;;;;;;22.03;64.19;153194.11;1695079;83;20316;-67
2022/09/08 03:02:18;;;;;;;;;;;;;;;22.01;64.06;153188.89;1694945;84;20226;-67
2022/09/08 03:04:44;;;;;;;;;;;;;;;21.98;63.83;153181.00;1695219;84;20231;-67
2022/09/08 03:07:11;;;;;;;;;;;;;;;21.97;63.80;153177.11;1692240;84;20191;-67
2022/09/08 03:09:39;;;;;;;;;;;;;;;22.06;63.68;153199.34;1693749;84;20567;-67
2022/09/08 03:12:07;;;;;;;;;;;;;;;22.17;63.43;153229.41;1693420;84;20243;-67
2022/09/08 03:14:34;;;;;;;;;;;;;;;22.23;63.10;153243.81;1642510;87;20235;-66
2022/09/08 03:17:00;;;;;;;;;;;;;;;22.18;63.08;153230.69;1677669;84;20659;-66
2022/09/08 03:19:27;;;;;;;;;;;;;;;22.16;62.98;153225.47;1677646;85;20272;-67
2022/09/08 03:21:54;;;;;;;;;;;;;;;22.09;63.21;153207.19;1677829;85;21243;-67
2022/09/08 03:24:20;;;;;;;;;;;;;;;21.90;63.40;153160.09;1677662;84;20215;-67
2022/09/08 03:26:46;;;;;;;;;;;;;;;21.66;64.07;153099.95;1677708;85;20248;-67
2022/09/08 03:29:13;;;;;;;;;;;;;;;21.36;65.26;153022.78;1677557;85;20544;-67
2022/09/08 03:31:40;;;;;;;;;;;;;;;21.16;66.39;152974.42;1677911;85;20184;-68
2022/09/08 03:34:06;;;;;;;;;;;;;;;21.12;66.96;152963.98;1678147;85;21301;-67
2022/09/08 03:36:33;;;;;;;;;;;;;;;21.13;67.19;152966.59;1677717;85;20396;-67
2022/09/08 03:38:59;;;;;;;;;;;;;;;21.20;67.16;152982.27;1677744;84;20215;-67
2022/09/08 03:41:26;;;;;;;;;;;;;;;21.26;66.22;152999.27;1677919;85;20235;-68
2022/09/08 03:43:53;;;;;;;;;;;;;;;21.34;66.10;153018.88;1678165;85;20208;-67
2022/09/08 03:46:19;;;;;;;;;;;;;;;21.42;65.92;153039.78;1677755;85;21160;-66
2022/09/08 03:48:45;;;;;;;;;;;;;;;21.42;65.95;153039.78;1677607;85;20207;-67
2022/09/08 03:51:15;;;;;;;;;;;;;;;21.51;66.13;153060.67;1677676;85;20249;-68
2022/09/08 03:53:43;;;;;;;;;;;;;;;21.64;65.46;153094.69;1677890;85;20799;-68
2022/09/08 03:56:10;;;;;;;;;;;;;;;21.77;64.32;153127.41;1677897;84;20271;-68
2022/09/08 03:58:37;;;;;;;;;;;;;;;21.74;63.02;153120.86;1677832;85;21136;-68
2022/09/08 04:01:12;;;;;;;;;;;;;;;21.58;62.97;153080.28;1673419;85;20224;-67
2022/09/08 04:03:39;;;;;;;;;;;;;;;21.37;63.80;153026.72;1669097;85;20184;-67
2022/09/08 04:06:06;;;;;;;;;;;;;;;21.29;64.59;153005.78;1699871;83;21199;-67
2022/09/08 04:08:32;;;;;;;;;;;;;;;21.32;64.79;153014.94;1725107;83;20180;-67
2022/09/08 04:10:59;;;;;;;;;;;;;;;21.40;64.92;153034.55;1698441;84;21354;-59
2022/09/08 04:13:27;;;;;;;;;;;;;;;21.51;64.97;153060.67;1698535;84;20238;-60
2022/09/08 04:15:53;;;;;;;;;;;;;;;21.65;64.70;153097.34;1698995;84;20171;-60
2022/09/08 04:18:20;;;;;;;;;;;;;;;21.88;64.47;153156.20;1698759;84;20179;-66
2022/09/08 04:20:53;;;;;;;;;;;;;;;22.15;63.83;153224.19;1698644;84;20226;-68
2022/09/08 04:23:21;;;;;;;;;;;;;;;22.40;62.98;153286.97;1698610;84;21216;-68
2022/09/08 04:25:56;;;;;;;;;;;;;;;22.56;62.13;153327.55;1698444;84;20275;-60
2022/09/08 04:28:23;;;;;;;;;;;;;;;22.59;61.49;153334.11;1698664;84;20949;-60
2022/09/08 04:30:50;;;;;;;;;;;;;;;22.50;61.13;153310.53;1698572;84;20211;-59
2022/09/08 04:33:17;;;;;;;;;;;;;;;22.43;61.51;153293.47;1698443;84;20201;-59
2022/09/08 04:35:44;;;;;;;;;;;;;;;22.51;61.65;153314.48;1698577;84;21163;-60
2022/09/08 04:38:10;;;;;;;;;;;;;;;22.70;61.35;153362.86;1698412;84;20200;-60
2022/09/08 04:40:37;;;;;;;;;;;;;;;22.96;60.55;153428.28;1698516;84;20474;-68
2022/09/08 04:43:04;;;;;;;;;;;;;;;23.22;59.79;153492.41;1698536;83;20751;-68
2022/09/08 04:45:31;;;;;;;;;;;;;;;23.46;59.55;153553.98;1698403;83;20202;-67
2022/09/08 04:47:57;;;;;;;;;;;;;;;23.72;58.70;153620.70;1698459;84;21841;-61
2022/09/08 04:50:24;;;;;;;;;;;;;;;23.84;58.00;153649.53;1698536;84;20215;-60
2022/09/08 04:52:50;;;;;;;;;;;;;;;23.89;57.84;153663.94;1698309;83;20515;-61
2022/09/08 04:55:17;;;;;;;;;;;;;;;23.84;57.87;153650.81;1698503;84;20222;-68
2022/09/08 04:57:43;;;;;;;;;;;;;;;23.73;58.30;153622.03;1698729;83;20183;-70
2022/09/08 05:00:12;;;;;;;;;;;;;;;23.63;58.71;153597.16;1698315;84;21139;-68
2022/09/08 05:02:39;;;;;;;;;;;;;;;23.62;59.05;153594.55;1698282;84;20618;-61
2022/09/08 05:05:07;;;;;;;;;;;;;;;23.72;58.98;153620.70;1698322;84;20237;-61
2022/09/08 05:07:34;;;;;;;;;;;;;;;23.82;58.86;153644.30;1697148;84;20167;-61
2022/09/08 05:10:01;;;;;;;;;;;;;;;23.87;59.19;153657.38;1697042;84;20518;-62
2022/09/08 05:12:29;;;;;;;;;;;;;;;23.94;59.17;153675.69;1697363;83;20174;-60
2022/09/08 05:14:57;;;;;;;;;;;;;;;24.05;59.03;153701.95;1698215;84;20182;-61
2022/09/08 05:17:23;;;;;;;;;;;;;;;24.16;58.72;153730.72;1698317;84;20186;-60
2022/09/08 05:19:50;;;;;;;;;;;;;;;24.03;58.93;153699.33;1698400;84;20190;-69
2022/09/08 05:22:17;;;;;;;;;;;;;;;23.86;59.21;153654.75;1698530;84;20178;-68
2022/09/08 05:24:44;;;;;;;;;;;;;;;23.71;59.81;153618.09;1699214;84;21978;-68
2022/09/08 05:27:10;;;;;;;;;;;;;;;23.66;59.68;153605.02;1698485;84;20218;-60
2022/09/08 05:29:37;;;;;;;;;;;;;;;23.67;59.64;153607.62;1698471;84;20483;-61
2022/09/08 05:32:04;;;;;;;;;;;;;;;23.74;59.36;153625.94;1698464;84;20182;-61
2022/09/08 05:34:31;;;;;;;;;;;;;;;23.77;59.19;153631.22;1698672;84;20191;-68
2022/09/08 05:36:57;;;;;;;;;;;;;;;23.82;59.24;153644.30;1698639;84;21788;-61
2022/09/08 05:39:24;;;;;;;;;;;;;;;23.96;59.25;153680.92;1698358;84;20175;-62
2022/09/08 05:41:51;;;;;;;;;;;;;;;24.06;58.80;153704.56;1698630;84;20210;-60
2022/09/08 05:44:17;;;;;;;;;;;;;;;24.08;58.75;153709.80;1698366;84;20562;-61
2022/09/08 05:46:45;;;;;;;;;;;;;;;24.05;58.51;153701.95;1698601;84;20186;-60
2022/09/08 05:49:11;;;;;;;;;;;;;;;23.99;58.79;153687.48;1698488;84;21248;-61
2022/09/08 05:51:38;;;;;;;;;;;;;;;23.96;58.85;153680.92;1698255;84;20470;-69
2022/09/08 05:54:05;;;;;;;;;;;;;;;23.95;59.05;153678.31;1698227;84;20190;-68
2022/09/08 05:56:31;;;;;;;;;;;;;;;23.98;59.13;153686.16;1698167;84;20210;-67
2022/09/08 05:58:58;;;;;;;;;;;;;;;24.05;59.16;153701.95;1698378;84;20205;-67
2022/09/08 06:01:30;;;;;;;;;;;;;;;24.13;59.25;153722.88;1698044;84;21108;-67
2022/09/08 06:03:58;;;;;;;;;;;;;;;24.27;59.58;153759.56;1697661;84;20201;-67
2022/09/08 06:06:25;;;;;;;;;;;;;;;24.43;59.47;153798.86;1708874;83;20200;-67
2022/09/08 06:08:52;;;;;;;;;;;;;;;24.49;59.64;153814.56;1709124;83;20218;-68
2022/09/08 06:11:19;;;;;;;;;;;;;;;24.49;59.95;153814.56;1697855;83;20195;-60
2022/09/08 06:13:45;;;;;;;;;;;;;;;24.43;60.24;153798.86;1700420;83;21271;-60
2022/09/08 06:16:13;;;;;;;;;;;;;;;24.38;60.67;153785.72;1698469;83;20403;-60
2022/09/08 06:18:43;;;;;;;;;;;;;;;24.41;60.99;153794.91;1699806;83;20218;-60
2022/09/08 06:21:18;;;;;;;;;;;;;;;24.46;61.11;153806.70;1698399;84;20758;-59
2022/09/08 06:23:50;;;;;;;;;;;;;;;24.44;61.21;153801.47;1698716;84;20130;-60
2022/09/08 06:26:24;;;;;;;;;;;;;;;24.57;61.52;153835.48;1697916;84;21239;-60
2022/09/08 06:28:57;;;;;;;;;;;;;;;24.70;61.65;153868.23;1697549;84;20178;-60
2022/09/08 06:31:31;;;;;;;;;;;;;;;24.77;61.36;153885.31;1696754;84;20182;-60
2022/09/08 06:34:01;;;;;;;;;;;;;;;24.83;61.53;153901.03;1695660;83;20199;-59
2022/09/08 06:36:46;;;;;;;;;;;;;;;24.94;61.51;153927.25;1698331;83;20182;-59
2022/09/08 06:39:16;;;;;;;;;;;;;;;25.00;60.75;153944.28;1694983;84;21983;-59
2022/09/08 06:41:49;;;;;;;;;;;;;;;25.25;60.50;154005.83;1697758;84;20203;-60
2022/09/08 06:44:21;;;;;;;;;;;;;;;25.54;60.43;154080.56;1697428;83;20221;-60
2022/09/08 06:46:47;;;;;;;;;;;;;;;25.73;59.93;154129.05;1698338;84;20463;-61
2022/09/08 06:49:14;;;;;;;;;;;;;;;25.84;59.61;154155.28;1697780;84;20193;-61
2022/09/08 06:51:51;;;;;;;;;;;;;;;25.87;59.31;154163.14;1697635;84;22280;-61
2022/09/08 06:54:40;;;;;;;;;;;;;;;25.89;58.80;154169.70;1698402;83;20182;-60
2022/09/08 06:57:29;;;;;;;;;;;;;;;25.80;58.91;154144.80;1683080;83;20231;-60
2022/09/08 06:59:59;;;;;;;;;;;;;;;25.76;59.24;154134.33;1686825;84;20568;-60
2022/09/08 07:02:32;;;;;;;;;;;;;;;25.74;59.23;154131.66;1650317;85;20204;-61
2022/09/08 07:05:14;;;;;;;;;;;;;;;25.76;59.38;154134.33;1677919;84;21132;-59
2022/09/08 07:07:55;;;;;;;;;;;;;;;25.80;59.63;154146.09;1675460;84;20211;-60
2022/09/08 07:10:29;;;;;;;;;;;;;;;25.95;59.23;154184.09;1673240;84;20187;-61
2022/09/08 07:13:11;;;;;;;;;;;;;;;26.09;58.67;154218.19;1690748;84;20115;-61
2022/09/08 07:15:57;;;;;;;;;;;;;;;26.20;58.13;154247.09;1681906;84;20150;-60
2022/09/08 07:19:00;;;;;;;;;;;;;;;26.38;57.67;154291.63;1679767;84;21272;-60
2022/09/08 07:21:42;;;;;;;;;;;;;;;26.43;57.69;154304.78;1678435;83;20262;-60
2022/09/08 07:24:12;;;;;;;;;;;;;;;26.58;55.38;154344.08;1693977;84;20171;-60
2022/09/08 07:26:47;;;;;;;;;;;;;;;26.65;53.16;154359.84;1691101;84;20175;-60
2022/09/08 07:29:22;;;;;;;;;;;;;;;26.81;51.63;154401.77;1688602;84;20171;-60
2022/09/08 07:31:50;;;;;;;;;;;;;;;26.85;50.71;154412.31;1694613;84;21180;-61
2022/09/08 07:34:23;;;;;;;;;;;;;;;26.95;51.28;154435.94;1690169;83;20174;-61
2022/09/08 07:37:10;;;;;;;;;;;;;;;27.06;52.50;154464.77;1684921;84;20178;-61
2022/09/08 07:39:59;;;;;;;;;;;;;;;27.01;53.53;154451.66;1693990;83;20954;-61
2022/09/08 07:42:26;;;;;;;;;;;;;;;26.86;54.70;154414.97;1694859;84;20221;-61
2022/09/08 07:44:56;;;;;;;;;;;;;;;26.82;55.54;154404.39;1691567;84;21241;-60
2022/09/08 07:47:34;;;;;;;;;;;;;;;26.92;55.56;154428.08;1693656;83;20174;-62
2022/09/08 07:50:53;;;;;;;;;;;;;;;26.96;55.43;154439.84;1687106;84;20198;-61
2022/09/08 07:53:05;;;;;;;;;;;;;;;27.10;55.43;154475.30;1691068;83;21114;-61
2022/09/08 07:55:38;;;;;;;;;;;;;;;27.31;55.21;154527.77;1686345;83;20177;-60
2022/09/08 07:58:21;;;;;;;;;;;;;;;27.40;54.66;154550.02;1689902;84;21073;-60
2022/09/08 08:00:54;;;;;;;;;;;;;;;27.32;54.00;154530.38;1677812;84;20109;-59
2022/09/08 08:03:40;;;;;;;;;;;;;;;27.25;54.01;154511.98;1659711;84;20185;-59
2022/09/08 08:06:34;;;;;;;;;;;;;;;27.34;53.46;154535.63;1665392;85;20255;-60
2022/09/08 08:09:31;;;;;;;;;;;;;;;27.35;53.09;154538.25;1665990;86;20186;-60
2022/09/08 08:12:10;;;;;;;;;;;;;;;27.25;53.66;154511.98;1652257;86;21170;-61
2022/09/08 08:14:46;;;;;;;;;;;;;;;27.31;54.08;154527.77;1660201;85;20182;-60
2022/09/08 08:17:16;;;;;;;;;;;;;;;27.28;54.06;154519.86;1659189;85;20181;-60
2022/09/08 08:19:53;;;;;;;;;;;;;;;27.09;53.96;154471.34;1626349;88;20898;-61
2022/09/08 08:22:23;;;;;;;;;;;;;;;26.85;54.55;154412.31;1658913;85;20133;-61
2022/09/08 08:25:12;;;;;;;;;;;;;;;26.50;55.26;154321.78;1659356;85;21109;-61
2022/09/08 08:27:52;;;;;;;;;;;;;;;26.27;56.59;154265.44;1622678;86;20461;-61
2022/09/08 08:30:22;;;;;;;;;;;;;;;25.98;58.13;154192.00;1630164;86;20192;-60
2022/09/08 08:33:05;;;;;;;;;;;;;;;25.93;58.00;154178.84;1627459;87;20188;-61
2022/09/08 08:35:47;;;;;;;;;;;;;;;26.02;57.28;154202.47;1660583;85;20536;-60
2022/09/08 08:38:26;;;;;;;;;;;;;;;25.93;56.95;154178.84;1629872;86;21973;-61
2022/09/08 08:40:57;;;;;;;;;;;;;;;25.80;57.42;154146.09;1635317;86;20205;-61
2022/09/08 08:43:55;;;;;;;;;;;;;;;25.57;58.38;154088.44;1657920;85;20210;-62
2022/09/08 08:46:50;;;;;;;;;;;;;;;25.05;59.81;153956.03;1657119;86;20170;-60
2022/09/08 08:49:26;;;;;;;;;;;;;;;24.37;62.42;153783.11;1655442;85;20170;-61
2022/09/08 08:51:56;;;;;;;;;;;;;;;24.10;64.58;153716.36;1662701;86;22352;-61
2022/09/08 08:54:42;;;;;;;;;;;;;;;24.17;65.11;153733.34;1654578;85;20456;-61
2022/09/08 08:57:45;;;;;;;;;;;;;;;24.37;64.93;153783.11;1621303;86;20176;-61
2022/09/08 09:00:18;;;;;;;;;;;;;;;24.59;64.85;153840.72;1660233;85;20574;-61
2022/09/08 09:03:22;;;;;;;;;;;;;;;24.76;63.73;153882.70;1668143;84;21323;-61
2022/09/08 09:05:59;;;;;;;;;;;;;;;24.74;63.42;153877.42;1697856;83;21332;-61
2022/09/08 09:08:46;;;;;;;;;;;;;;;24.65;63.85;153853.81;1674246;84;20176;-71
2022/09/08 09:11:19;;;;;;;;;;;;;;;24.73;64.04;153874.80;1647120;85;20215;-70
2022/09/08 09:13:51;;;;;;;;;;;;;;;24.69;64.20;153865.61;1720506;83;20490;-72
2022/09/08 09:16:24;;;;;;;;;;;;;;;24.71;64.41;153869.56;1690262;84;20545;-70
2022/09/08 09:19:18;;;;;;;;;;;;;;;24.86;64.51;153907.59;1695633;84;21242;-70
2022/09/08 09:21:58;;;;;;;;;;;;;;;25.13;64.31;153975.69;1679297;85;20232;-71
2022/09/08 09:24:36;;;;;;;;;;;;;;;25.52;63.12;154074.00;1677025;84;20186;-62
2022/09/08 09:27:15;;;;;;;;;;;;;;;25.70;61.96;154119.91;1679997;85;20215;-63
2022/09/08 09:29:42;;;;;;;;;;;;;;;25.88;61.04;154165.75;1674575;85;20214;-61
2022/09/08 09:32:30;;;;;;;;;;;;;;;26.02;60.41;154201.14;1680526;84;21138;-72
2022/09/08 09:35:03;;;;;;;;;;;;;;;26.09;59.92;154219.52;1659875;85;20203;-71
2022/09/08 09:37:58;;;;;;;;;;;;;;;26.21;59.77;154249.72;1675414;85;20227;-70
2022/09/08 09:40:28;;;;;;;;;;;;;;;26.49;58.76;154319.16;1675419;85;20193;-69
2022/09/08 09:43:05;;;;;;;;;;;;;;;26.76;57.62;154388.67;1681186;85;20191;-71
2022/09/08 09:45:40;;;;;;;;;;;;;;;27.06;56.62;154464.77;1662792;85;22056;-62
2022/09/08 09:48:35;;;;;;;;;;;;;;;27.27;55.73;154517.23;1675198;84;20186;-71
2022/09/08 09:51:05;;;;;;;;;;;;;;;27.22;55.46;154504.13;1678448;85;20205;-72
2022/09/08 09:53:50;;;;;;;;;;;;;;;27.13;55.71;154483.16;1677282;84;20180;-70
2022/09/08 09:56:30;;;;;;;;;;;;;;;27.02;56.08;154454.28;1675254;85;20217;-62
2022/09/08 09:59:29;;;;;;;;;;;;;;;27.06;56.40;154464.77;1675984;85;21154;-62
2022/09/08 10:02:09;;;;;;;;;;;;;;;27.13;55.95;154481.83;1680736;85;20289;-61
2022/09/08 10:04:45;;;;;;;;;;;;;;;27.17;55.87;154493.64;1677530;85;20322;-62
2022/09/08 10:07:28;;;;;;;;;;;;;;;27.26;55.74;154514.61;1673874;85;20859;-62
2022/09/08 10:10:08;;;;;;;;;;;;;;;27.19;55.79;154496.27;1676381;83;20203;-61
2022/09/08 10:12:57;;;;;;;;;;;;;;;27.03;56.22;154456.91;1676621;84;21864;-61
2022/09/08 10:15:55;;;;;;;;;;;;;;;26.90;56.56;154422.83;1676139;85;20184;-61
2022/09/08 10:18:45;;;;;;;;;;;;;;;26.87;56.98;154416.27;1676432;85;20203;-60
2022/09/08 10:21:35;;;;;;;;;;;;;;;26.86;57.18;154413.64;1681173;84;20225;-61
2022/09/08 10:24:24;;;;;;;;;;;;;;;26.95;56.58;154435.94;1685547;83;20195;-62
2022/09/08 10:27:17;;;;;;;;;;;;;;;26.97;56.39;154441.19;1681642;83;22404;-61
2022/09/08 10:29:59;;;;;;;;;;;;;;;26.98;56.34;154445.14;1677819;83;20195;-61
2022/09/08 10:32:46;;;;;;;;;;;;;;;26.93;56.12;154431.98;1677201;83;20245;-61
2022/09/08 10:35:22;;;;;;;;;;;;;;;26.78;56.33;154393.91;1675635;85;20154;-60
2022/09/08 10:38:09;;;;;;;;;;;;;;;26.69;56.62;154370.33;1675259;85;20139;-61
2022/09/08 10:40:58;;;;;;;;;;;;;;;26.66;56.89;154363.75;1675300;84;21267;-60
2022/09/08 10:43:55;;;;;;;;;;;;;;;26.53;57.34;154330.98;1675257;85;20478;-61
2022/09/08 10:47:02;;;;;;;;;;;;;;;26.53;57.20;154330.98;1674922;84;20484;-61
2022/09/08 10:49:45;;;;;;;;;;;;;;;26.49;57.20;154320.50;1681831;83;20175;-69
2022/09/08 10:52:27;;;;;;;;;;;;;;;26.27;58.00;154264.09;1677676;83;20597;-70
2022/09/08 10:55:10;;;;;;;;;;;;;;;25.98;59.07;154190.66;1680028;83;21221;-71
2022/09/08 10:58:06;;;;;;;;;;;;;;;25.98;59.42;154192.00;1680361;83;20675;-70
2022/09/08 11:00:46;;;;;;;;;;;;;;;26.12;58.92;154226.05;1688695;83;20246;-72
2022/09/08 11:03:33;;;;;;;;;;;;;;;26.19;58.48;154243.14;1681828;84;20509;-71
2022/09/08 11:06:07;;;;;;;;;;;;;;;26.15;58.49;154235.23;1691681;83;20192;-70
2022/09/08 11:08:43;;;;;;;;;;;;;;;26.01;58.22;154199.84;1692675;84;22068;-70
2022/09/08 11:11:32;;;;;;;;;;;;;;;25.79;58.82;154142.19;1656700;85;20193;-71
2022/09/08 11:14:04;;;;;;;;;;;;;;;25.71;59.76;154122.52;1660274;85;20193;-71
2022/09/08 11:16:39;;;;;;;;;;;;;;;25.62;59.65;154100.23;1633862;87;21471;-73
2022/09/08 11:19:35;;;;;;;;;;;;;;;25.50;60.39;154070.09;1630669;86;20184;-70
2022/09/08 11:22:11;;;;;;;;;;;;;;;25.56;60.83;154084.53;1632813;86;21164;-71
2022/09/08 11:24:42;;;;;;;;;;;;;;;25.76;60.66;154135.61;1661291;84;20178;-72
2022/09/08 11:27:40;;;;;;;;;;;;;;;25.81;60.50;154147.42;1626026;86;20173;-71
2022/09/08 11:30:14;;;;;;;;;;;;;;;25.66;60.77;154109.42;1653710;85;20182;-72
2022/09/08 11:32:47;;;;;;;;;;;;;;;25.54;61.51;154079.28;1631670;86;20191;-71
2022/09/08 11:35:20;;;;;;;;;;;;;;;25.55;61.85;154083.19;1669862;84;21247;-71
2022/09/08 11:38:05;;;;;;;;;;;;;;;25.61;61.85;154097.63;1631915;86;20181;-72
2022/09/08 11:40:53;;;;;;;;;;;;;;;25.66;61.92;154109.42;1634377;86;20339;-61
2022/09/08 11:43:26;;;;;;;;;;;;;;;25.66;62.35;154110.70;1656342;84;20695;-61
2022/09/08 11:46:27;;;;;;;;;;;;;;;25.69;62.44;154118.56;1657766;84;20206;-61
2022/09/08 11:49:17;;;;;;;;;;;;;;;25.69;62.60;154118.56;1628193;86;21465;-63
2022/09/08 11:52:13;;;;;;;;;;;;;;;25.55;63.24;154081.91;1652001;85;20201;-61
2022/09/08 11:55:02;;;;;;;;;;;;;;;25.43;63.76;154053.00;1673509;85;20472;-61
2022/09/08 11:57:35;;;;;;;;;;;;;;;25.36;63.89;154033.34;1672669;85;20707;-62
2022/09/08 12:00:12;;;;;;;;;;;;;;;25.37;63.78;154035.97;1663072;85;20189;-61
2022/09/08 12:02:52;;;;;;;;;;;;;;;25.42;63.97;154050.39;1630959;87;21153;-61
2022/09/08 12:05:39;;;;;;;;;;;;;;;25.51;63.76;154071.37;1599116;86;20199;-62
2022/09/08 12:08:27;;;;;;;;;;;;;;;25.52;63.32;154074.00;1677508;84;20197;-62
2022/09/08 12:11:22;;;;;;;;;;;;;;;25.37;63.50;154037.30;1676346;84;20176;-61
2022/09/08 12:13:56;;;;;;;;;;;;;;;25.24;64.46;154004.55;1665470;85;20183;-61
2022/09/08 12:16:41;;;;;;;;;;;;;;;25.27;65.39;154011.06;1698877;82;21382;-61
2022/09/08 12:19:24;;;;;;;;;;;;;;;25.45;64.94;154058.25;1698153;82;20166;-61
2022/09/08 12:22:16;;;;;;;;;;;;;;;25.59;64.22;154093.66;1694852;82;20136;-61
2022/09/08 12:25:01;;;;;;;;;;;;;;;25.70;63.57;154121.19;1681339;84;20859;-61
2022/09/08 12:28:05;;;;;;;;;;;;;;;25.59;62.79;154092.38;1669047;83;20441;-61
2022/09/08 12:30:50;;;;;;;;;;;;;;;25.42;62.95;154050.39;1676371;84;21155;-61
2022/09/08 12:33:36;;;;;;;;;;;;;;;25.25;63.26;154007.16;1671962;84;20832;-60
2022/09/08 12:36:33;;;;;;;;;;;;;;;25.22;62.94;153999.31;1662904;84;20224;-61
2022/09/08 12:39:24;;;;;;;;;;;;;;;25.09;63.74;153966.56;1671251;84;20284;-60
2022/09/08 12:42:07;;;;;;;;;;;;;;;25.09;63.70;153966.56;1674562;83;20147;-60
2022/09/08 12:44:54;;;;;;;;;;;;;;;25.10;64.03;153967.84;1676194;84;21260;-61
2022/09/08 12:47:39;;;;;;;;;;;;;;;25.12;63.85;153974.41;1669913;84;20505;-61
2022/09/08 12:50:25;;;;;;;;;;;;;;;25.21;63.27;153995.36;1661365;84;20185;-60
2022/09/08 12:53:14;;;;;;;;;;;;;;;25.17;62.98;153986.17;1667753;84;20155;-60
2022/09/08 12:55:45;;;;;;;;;;;;;;;25.12;63.46;153974.41;1677502;85;20188;-61
2022/09/08 12:58:16;;;;;;;;;;;;;;;25.14;63.58;153979.66;1676624;85;21094;-61
2022/09/08 13:00:52;;;;;;;;;;;;;;;25.23;63.90;154000.59;1670845;84;20167;-62
2022/09/08 13:03:25;;;;;;;;;;;;;;;25.41;63.51;154047.77;1676426;82;20210;-61
2022/09/08 13:06:13;;;;;;;;;;;;;;;25.52;63.06;154074.00;1707562;82;20229;-60
2022/09/08 13:08:58;;;;;;;;;;;;;;;25.54;63.07;154079.28;1705114;82;20182;-60
2022/09/08 13:11:42;;;;;;;;;;;;;;;25.62;63.15;154100.23;1710385;82;20178;-61
2022/09/08 13:14:09;;;;;;;;;;;;;;;25.56;63.21;154085.81;1705951;82;20312;-60
2022/09/08 13:16:52;;;;;;;;;;;;;;;25.39;63.33;154042.53;1703352;84;20998;-60
2022/09/08 13:19:32;;;;;;;;;;;;;;;25.39;63.86;154042.53;1686156;84;20221;-61